Time;durP1;ratioP1;P1;durP2;ratioP2;P2;SDS_P1;SDS_P2;PMS_P1;PMS_P2;Temp;Humidity;BMP_temperature;BMP_pressure;BME280_temperature;BME280_humidity;BME280_pressure;Samples;Min_cycle;Max_cycle;Signal;HPM_P1;HPM_P2
2023/10/13 00:01:06;;;;;;;1.73;1.13;;;18.50;99.90;;;;;;5076044;28;20437;-82
2023/10/13 00:03:33;;;;;;;3.33;1.17;;;18.50;99.80;;;;;;5075650;28;20521;-82
2023/10/13 00:06:02;;;;;;;1.90;1.53;;;18.40;99.90;;;;;;5075675;28;20449;-83
2023/10/13 00:08:30;;;;;;;3.43;1.57;;;18.40;99.70;;;;;;5076305;28;20453;-82
2023/10/13 00:10:59;;;;;;;3.03;1.17;;;18.40;99.90;;;;;;5075496;28;20445;-83
2023/10/13 00:13:27;;;;;;;4.80;1.67;;;18.30;99.60;;;;;;5075413;28;20468;-82
2023/10/13 00:15:58;;;;;;;6.60;1.70;;;18.20;99.90;;;;;;5075481;28;20452;-82
2023/10/13 00:18:27;;;;;;;3.63;1.30;;;18.20;99.50;;;;;;5075469;28;20429;-82
2023/10/13 00:20:56;;;;;;;1.53;1.00;;;18.10;99.90;;;;;;5075408;28;20442;-82
2023/10/13 00:23:26;;;;;;;4.70;1.20;;;18.10;99.90;;;;;;5075267;28;20465;-82
2023/10/13 00:26:03;;;;;;;1.73;1.20;;;18.10;99.90;;;;;;5075360;28;20520;-82
2023/10/13 00:28:42;;;;;;;3.17;1.37;;;18.00;99.90;;;;;;5075423;28;20457;-82
2023/10/13 00:31:12;;;;;;;4.37;1.20;;;18.00;99.90;;;;;;5074578;28;20471;-82
2023/10/13 00:33:38;;;;;;;1.50;1.23;;;18.00;99.90;;;;;;5075250;28;20515;-82
2023/10/13 00:36:07;;;;;;;2.43;1.10;;;17.90;99.90;;;;;;5074795;28;20819;-82
2023/10/13 00:38:35;;;;;;;7.07;1.30;;;17.90;99.90;;;;;;5074700;28;20451;-82
2023/10/13 00:41:07;;;;;;;0.90;0.70;;;17.90;99.90;;;;;;5074685;28;20456;-82
2023/10/13 00:43:37;;;;;;;3.53;1.60;;;17.80;99.90;;;;;;5074595;28;20469;-82
2023/10/13 00:46:07;;;;;;;4.90;1.10;;;17.80;99.90;;;;;;5074938;28;20468;-82
2023/10/13 00:48:51;;;;;;;1.67;1.13;;;17.70;99.90;;;;;;5074800;28;20550;-82
2023/10/13 00:51:21;;;;;;;4.10;1.37;;;17.70;99.90;;;;;;5074365;28;20484;-82
2023/10/13 00:53:48;;;;;;;1.30;1.20;;;17.70;99.90;;;;;;5074662;28;20836;-82
2023/10/13 00:56:22;;;;;;;2.00;1.13;;;17.60;99.90;;;;;;5074653;28;20490;-82
2023/10/13 00:58:52;;;;;;;1.67;1.13;;;17.60;99.90;;;;;;5074690;28;20433;-82
2023/10/13 01:01:18;;;;;;;2.00;1.23;;;17.60;99.90;;;;;;5074253;28;20988;-82
2023/10/13 01:03:48;;;;;;;2.63;1.20;;;17.60;99.90;;;;;;5074131;28;20464;-82
2023/10/13 01:06:16;;;;;;;3.43;1.20;;;17.60;99.90;;;;;;5074224;28;20621;-81
2023/10/13 01:08:45;;;;;;;1.70;0.83;;;17.70;99.90;;;;;;5074389;28;20484;-82
2023/10/13 01:11:10;;;;;;;2.23;1.70;;;17.60;99.90;;;;;;5074659;28;20437;-81
2023/10/13 01:13:37;;;;;;;6.37;1.20;;;17.60;99.90;;;;;;5073935;28;20515;-82
2023/10/13 01:16:04;;;;;;;2.40;1.37;;;17.50;99.90;;;;;;5075286;28;20648;-82
2023/10/13 01:18:31;;;;;;;2.30;1.07;;;17.50;99.90;;;;;;5083724;28;20531;-82
2023/10/13 01:20:59;;;;;;;1.80;1.50;;;17.50;99.90;;;;;;5073942;28;20933;-82
2023/10/13 01:23:28;;;;;;;3.27;1.50;;;17.40;99.90;;;;;;5073794;28;20981;-81
2023/10/13 01:25:54;;;;;;;3.93;1.50;;;17.40;99.90;;;;;;5074102;28;20441;-82
2023/10/13 01:28:21;;;;;;;2.47;1.97;;;17.50;99.90;;;;;;5074046;28;20558;-82
2023/10/13 01:30:49;;;;;;;1.60;1.50;;;17.40;99.90;;;;;;5073992;28;20503;-82
2023/10/13 01:33:17;;;;;;;4.10;0.90;;;17.30;99.90;;;;;;5073860;28;20548;-82
2023/10/13 01:35:47;;;;;;;2.20;1.40;;;17.30;99.90;;;;;;5074115;28;20452;-82
2023/10/13 01:38:14;;;;;;;5.10;1.20;;;17.30;99.90;;;;;;5073808;28;20472;-82
2023/10/13 01:40:42;;;;;;;3.63;1.13;;;17.20;99.90;;;;;;5073935;28;20447;-81
2023/10/13 01:43:10;;;;;;;1.13;1.03;;;17.20;99.90;;;;;;5073810;28;20492;-82
2023/10/13 01:45:39;;;;;;;1.83;1.20;;;17.10;99.90;;;;;;5073734;28;20441;-81
2023/10/13 01:48:07;;;;;;;2.70;1.43;;;17.10;99.90;;;;;;5073470;28;20549;-81
2023/10/13 01:50:36;;;;;;;3.03;1.43;;;17.00;99.90;;;;;;5073318;28;20477;-82
2023/10/13 01:53:11;;;;;;;3.27;1.53;;;17.00;99.90;;;;;;5073623;28;20464;-81
2023/10/13 01:55:42;;;;;;;1.10;1.00;;;16.90;99.90;;;;;;5073365;28;20902;-82
2023/10/13 01:58:14;;;;;;;2.17;1.27;;;16.90;99.90;;;;;;5073886;28;20461;-82
2023/10/13 02:00:42;;;;;;;3.40;2.03;;;16.80;99.90;;;;;;5074107;28;20499;-81
2023/10/13 02:03:14;;;;;;;3.03;1.30;;;16.80;99.90;;;;;;5073195;28;20522;-81
2023/10/13 02:05:46;;;;;;;2.33;1.47;;;16.80;99.90;;;;;;5073226;28;20421;-82
2023/10/13 02:08:17;;;;;;;3.33;1.70;;;16.80;99.90;;;;;;5073526;28;20479;-82
2023/10/13 02:10:45;;;;;;;4.50;1.57;;;16.80;99.90;;;;;;5073088;28;20918;-82
2023/10/13 02:13:17;;;;;;;3.13;1.43;;;16.80;99.90;;;;;;5073371;28;20463;-82
2023/10/13 02:15:45;;;;;;;3.50;1.13;;;16.80;99.90;;;;;;5073404;28;20440;-82
2023/10/13 02:18:20;;;;;;;1.43;1.27;;;16.70;99.90;;;;;;5073347;28;20452;-82
2023/10/13 02:20:54;;;;;;;4.70;1.83;;;16.70;99.90;;;;;;5073329;28;20436;-82
2023/10/13 02:23:20;;;;;;;1.40;1.03;;;16.70;99.90;;;;;;5072915;28;20473;-82
2023/10/13 02:25:47;;;;;;;4.57;1.50;;;16.70;99.90;;;;;;5073236;28;20494;-81
2023/10/13 02:28:14;;;;;;;2.43;1.57;;;16.70;99.90;;;;;;5073096;28;20476;-81
2023/10/13 02:30:44;;;;;;;2.10;1.23;;;17.00;99.90;;;;;;5072896;28;20949;-82
2023/10/13 02:33:12;;;;;;;3.23;1.60;;;16.70;99.90;;;;;;5073135;28;20479;-82
2023/10/13 02:35:43;;;;;;;1.97;1.00;;;16.70;99.90;;;;;;5073174;28;20449;-82
2023/10/13 02:38:13;;;;;;;3.53;1.27;;;16.80;99.90;;;;;;5073210;28;20793;-82
2023/10/13 02:40:39;;;;;;;3.73;0.90;;;16.80;99.90;;;;;;5072894;28;20895;-82
2023/10/13 02:43:06;;;;;;;1.30;1.20;;;16.80;99.90;;;;;;5073025;28;20460;-82
2023/10/13 02:45:36;;;;;;;2.20;1.67;;;16.80;99.90;;;;;;5072786;28;20691;-82
2023/10/13 02:48:13;;;;;;;1.37;1.10;;;16.70;99.90;;;;;;5072997;28;20465;-82
2023/10/13 02:50:43;;;;;;;3.83;1.20;;;16.80;99.90;;;;;;5072702;28;20476;-82
2023/10/13 02:53:13;;;;;;;2.40;1.23;;;16.70;99.90;;;;;;5073252;28;20465;-82
2023/10/13 02:55:49;;;;;;;1.10;1.00;;;16.70;99.90;;;;;;5077024;28;20449;-82
2023/10/13 02:58:15;;;;;;;1.27;1.17;;;16.70;99.90;;;;;;5077193;28;20413;-82
2023/10/13 03:00:44;;;;;;;1.10;1.00;;;16.80;99.90;;;;;;5076889;28;20445;-82
2023/10/13 03:03:09;;;;;;;3.47;1.17;;;16.70;99.90;;;;;;5076787;28;20465;-82
2023/10/13 03:05:39;;;;;;;3.73;1.60;;;16.70;99.90;;;;;;5076515;28;20486;-81
2023/10/13 03:08:06;;;;;;;2.30;1.47;;;16.70;99.90;;;;;;5076416;28;20222;-82
2023/10/13 03:10:33;;;;;;;6.43;1.37;;;16.70;99.90;;;;;;5076702;28;20502;-82
2023/10/13 03:12:59;;;;;;;4.93;1.20;;;16.70;99.90;;;;;;5076678;28;20473;-81
2023/10/13 03:15:30;;;;;;;5.30;1.33;;;16.60;99.90;;;;;;5076782;28;20960;-82
2023/10/13 03:17:58;;;;;;;1.60;1.40;;;16.60;99.90;;;;;;5077631;28;20219;-82
2023/10/13 03:20:31;;;;;;;2.10;1.20;;;16.60;99.90;;;;;;5076280;28;20516;-82
2023/10/13 03:22:57;;;;;;;2.63;1.63;;;16.50;99.90;;;;;;5076385;28;20465;-82
2023/10/13 03:25:29;;;;;;;1.13;1.10;;;16.50;99.90;;;;;;5076098;28;20460;-82
2023/10/13 03:28:01;;;;;;;3.93;1.40;;;16.50;99.90;;;;;;5076498;28;20875;-82
2023/10/13 03:30:35;;;;;;;4.30;1.30;;;16.50;99.90;;;;;;5076235;28;20425;-83
2023/10/13 03:33:06;;;;;;;1.67;1.30;;;16.50;99.90;;;;;;5076210;28;20468;-82
2023/10/13 03:35:39;;;;;;;3.00;1.67;;;16.50;99.90;;;;;;5075974;28;20483;-82
2023/10/13 03:38:11;;;;;;;0.90;0.90;;;16.40;99.90;;;;;;5075890;28;20903;-82
2023/10/13 03:40:40;;;;;;;2.60;1.20;;;16.40;99.90;;;;;;5075856;28;20902;-82
2023/10/13 03:43:09;;;;;;;2.70;1.57;;;16.50;99.90;;;;;;5075727;28;20473;-82
2023/10/13 03:45:38;;;;;;;1.53;1.10;;;16.40;99.90;;;;;;5075750;28;20449;-82
2023/10/13 03:48:11;;;;;;;3.70;1.70;;;16.40;99.90;;;;;;5075941;28;20485;-82
2023/10/13 03:50:46;;;;;;;3.57;1.20;;;16.40;99.90;;;;;;5075792;28;20484;-82
2023/10/13 03:53:13;;;;;;;3.50;1.37;;;16.40;99.90;;;;;;5075883;28;20468;-82
2023/10/13 03:55:40;;;;;;;3.73;0.87;;;16.40;99.90;;;;;;5075604;28;20495;-82
2023/10/13 03:58:10;;;;;;;3.60;1.50;;;16.40;99.90;;;;;;5075816;28;20441;-82
2023/10/13 04:00:37;;;;;;;1.87;1.50;;;16.40;99.90;;;;;;5075507;28;20796;-82
2023/10/13 04:03:08;;;;;;;3.43;1.50;;;16.40;99.90;;;;;;5075648;28;20473;-82
2023/10/13 04:05:40;;;;;;;0.80;0.80;;;16.40;99.90;;;;;;5074433;28;20429;-82
2023/10/13 04:16:38;;;;;;;1.30;1.10;;;16.20;99.90;;;;;;5075613;28;20400;-82
2023/10/13 04:19:09;;;;;;;2.20;1.73;;;16.20;99.90;;;;;;5075423;28;20429;-82
2023/10/13 04:21:42;;;;;;;4.57;1.90;;;16.20;99.90;;;;;;5075143;28;20914;-82
2023/10/13 04:24:22;;;;;;;1.90;1.70;;;16.20;99.90;;;;;;5074982;28;20977;-82
2023/10/13 04:27:29;;;;;;;2.63;1.40;;;16.10;99.90;;;;;;5075360;28;20444;-82
2023/10/13 04:29:50;;;;;;;2.20;1.63;;;16.10;99.90;;;;;;5074764;28;20437;-82
2023/10/13 04:32:28;;;;;;;2.43;1.23;;;16.10;99.90;;;;;;5074864;28;20480;-82
2023/10/13 04:34:58;;;;;;;2.33;1.10;;;16.00;99.90;;;;;;5075178;28;20517;-82
2023/10/13 04:37:29;;;;;;;4.97;1.30;;;16.00;99.90;;;;;;5077520;28;20456;-82
2023/10/13 04:39:59;;;;;;;1.77;1.23;;;16.00;99.90;;;;;;5077461;28;20448;-82
2023/10/13 04:42:49;;;;;;;2.97;1.57;;;16.00;99.90;;;;;;5074960;28;20480;-82
2023/10/13 04:45:38;;;;;;;1.93;1.10;;;16.00;99.90;;;;;;5074663;28;20429;-82
2023/10/13 04:48:17;;;;;;;1.90;1.07;;;16.00;99.90;;;;;;5074653;28;20489;-82
2023/10/13 04:50:47;;;;;;;3.90;1.23;;;15.90;99.90;;;;;;5074515;28;20830;-82
2023/10/13 04:53:29;;;;;;;2.10;1.37;;;15.90;99.90;;;;;;5075807;28;20483;-82
2023/10/13 05:02:31;;;;;;;3.80;1.53;;;15.80;99.90;;;;;;5074727;28;20511;-82
2023/10/13 05:05:11;;;;;;;1.50;1.40;;;15.70;99.90;;;;;;5074102;28;20432;-82
2023/10/13 05:49:02;;;;;;;3.43;1.20;;;15.50;99.90;;;;;;5073448;28;20480;-82
2023/10/13 05:51:33;;;;;;;2.53;1.23;;;15.50;99.90;;;;;;5073513;28;20480;-82
2023/10/13 06:29:53;;;;;;;0.87;0.87;;;16.30;99.90;;;;;;5072772;28;20444;-81
2023/10/13 06:32:25;;;;;;;1.33;1.10;;;16.40;99.90;;;;;;5073164;28;20494;-81
2023/10/13 06:34:57;;;;;;;5.57;1.10;;;16.40;99.90;;;;;;5073236;28;20429;-81
2023/10/13 06:37:25;;;;;;;1.77;1.20;;;16.40;99.90;;;;;;5073218;28;20801;-81
2023/10/13 06:39:56;;;;;;;1.93;1.20;;;16.40;99.90;;;;;;5073301;28;20444;-81
2023/10/13 06:42:27;;;;;;;4.00;2.50;;;16.40;99.90;;;;;;5073045;28;20515;-81
2023/10/13 06:44:54;;;;;;;4.43;1.53;;;16.40;99.90;;;;;;5072849;28;20801;-81
2023/10/13 06:47:24;;;;;;;2.00;1.80;;;16.40;99.90;;;;;;5073057;28;20440;-81
2023/10/13 06:49:51;;;;;;;5.50;1.23;;;16.30;99.90;;;;;;5072762;28;20524;-81
2023/10/13 06:52:18;;;;;;;2.77;1.10;;;16.40;99.90;;;;;;5073009;28;20433;-81
2023/10/13 06:54:46;;;;;;;3.17;1.43;;;16.40;99.90;;;;;;5072658;28;20823;-81
2023/10/13 06:57:14;;;;;;;1.73;1.03;;;16.40;99.90;;;;;;5072996;28;20797;-81
2023/10/13 06:59:41;;;;;;;2.93;2.03;;;16.50;99.90;;;;;;5073170;28;20478;-81
2023/10/13 07:02:09;;;;;;;1.60;1.40;;;16.50;99.90;;;;;;5072948;28;20480;-81
2023/10/13 07:04:39;;;;;;;4.13;1.57;;;16.60;99.90;;;;;;5072642;28;20445;-81
2023/10/13 07:07:10;;;;;;;1.37;1.10;;;16.60;99.90;;;;;;5073250;28;20453;-81
2023/10/13 07:09:55;;;;;;;2.00;1.20;;;16.70;99.90;;;;;;5072815;28;20479;-81
2023/10/13 07:12:24;;;;;;;1.70;1.47;;;16.70;99.90;;;;;;5073244;28;20795;-81
2023/10/13 07:14:59;;;;;;;1.63;1.00;;;16.80;99.90;;;;;;5072531;28;20454;-82
2023/10/13 07:17:27;;;;;;;2.90;1.00;;;16.90;99.90;;;;;;5072783;28;20436;-82
2023/10/13 07:20:05;;;;;;;3.13;1.50;;;16.90;99.90;;;;;;5072458;28;21006;-82
2023/10/13 07:22:39;;;;;;;2.30;1.33;;;17.00;99.90;;;;;;5072666;28;20471;-82
2023/10/13 07:25:07;;;;;;;1.10;1.00;;;17.00;99.90;;;;;;5072705;28;20434;-82
2023/10/13 07:27:35;;;;;;;2.10;1.20;;;17.10;99.90;;;;;;5072394;28;20452;-82
2023/10/13 07:30:13;;;;;;;2.23;1.23;;;17.20;99.90;;;;;;5072324;28;20476;-82
2023/10/13 07:32:44;;;;;;;3.27;1.40;;;17.30;99.90;;;;;;5072834;28;20535;-82
2023/10/13 07:35:13;;;;;;;3.00;1.13;;;17.40;99.90;;;;;;5072814;28;20425;-81
2023/10/13 07:37:41;;;;;;;6.20;1.00;;;17.40;99.90;;;;;;5072318;28;20445;-82
2023/10/13 07:40:22;;;;;;;3.90;1.27;;;17.40;99.90;;;;;;5074145;28;20926;-82
2023/10/13 07:42:49;;;;;;;1.50;1.10;;;17.50;99.90;;;;;;5076066;28;20468;-82
2023/10/13 07:45:18;;;;;;;2.77;1.30;;;17.50;99.90;;;;;;5076140;28;20448;-82
2023/10/13 07:47:46;;;;;;;2.63;1.27;;;17.60;99.90;;;;;;5079878;28;20444;-82
2023/10/13 07:50:14;;;;;;;7.87;1.87;;;17.60;99.90;;;;;;5075866;28;20526;-82
2023/10/13 07:52:58;;;;;;;1.67;1.00;;;17.70;99.90;;;;;;5075926;28;20452;-82
2023/10/13 07:55:25;;;;;;;1.47;1.00;;;17.70;99.90;;;;;;5075872;28;20425;-80
2023/10/13 07:57:54;;;;;;;1.70;0.93;;;17.80;99.90;;;;;;5076193;28;20821;-81
2023/10/13 08:00:38;;;;;;;2.83;1.43;;;17.90;99.90;;;;;;5075797;28;20456;-80
2023/10/13 08:03:19;;;;;;;5.27;1.50;;;18.00;99.90;;;;;;5075592;28;20965;-81
2023/10/13 08:06:03;;;;;;;1.10;0.90;;;18.20;99.90;;;;;;5076075;28;20436;-81
2023/10/13 08:08:37;;;;;;;1.40;1.10;;;18.30;99.90;;;;;;5075923;28;20468;-80
2023/10/13 08:11:11;;;;;;;1.47;0.90;;;18.50;99.90;;;;;;5075495;28;20884;-80
2023/10/13 08:13:38;;;;;;;2.00;0.87;;;18.60;99.90;;;;;;5075623;28;20502;-81
2023/10/13 08:16:08;;;;;;;2.23;1.03;;;18.80;99.90;;;;;;5075207;28;20441;-81
2023/10/13 08:18:35;;;;;;;6.07;1.23;;;18.90;99.90;;;;;;5075159;28;20445;-79
2023/10/13 08:21:04;;;;;;;5.30;1.20;;;19.10;99.90;;;;;;5075651;28;20477;-79
2023/10/13 08:23:57;;;;;;;1.40;1.10;;;19.30;99.90;;;;;;5074998;28;20468;-80
2023/10/13 08:32:05;;;;;;;0.77;0.77;;;19.80;99.50;;;;;;5074701;28;20441;-82
2023/10/13 08:34:38;;;;;;;2.00;1.07;;;19.90;99.50;;;;;;5075139;28;20460;-79
2023/10/13 08:37:19;;;;;;;1.00;0.90;;;20.10;99.30;;;;;;5075199;28;20435;-79
2023/10/13 08:43:09;;;;;;;1.77;1.30;;;20.70;98.60;;;;;;5013115;28;20581;-79
2023/10/13 08:45:59;;;;;;;0.93;0.90;;;21.00;98.20;;;;;;5013073;28;20447;-79
2023/10/13 08:48:32;;;;;;;2.27;1.27;;;21.40;97.20;;;;;;5059666;28;20483;-80
2023/10/13 08:51:05;;;;;;;1.73;1.17;;;21.80;96.60;;;;;;5073786;28;20480;-80
2023/10/13 08:53:44;;;;;;;2.63;1.27;;;22.30;96.40;;;;;;5074730;28;20456;-80
2023/10/13 08:56:15;;;;;;;1.00;0.90;;;23.10;95.30;;;;;;5075004;28;20439;-80
2023/10/13 08:59:04;;;;;;;2.10;1.03;;;24.10;93.90;;;;;;5074801;28;20460;-80
2023/10/13 09:01:39;;;;;;;4.63;1.20;;;24.90;93.00;;;;;;5074716;28;20189;-81
2023/10/13 09:04:21;;;;;;;6.57;1.50;;;25.50;92.20;;;;;;5074599;28;20226;-81
2023/10/13 09:07:15;;;;;;;1.50;1.23;;;25.80;90.70;;;;;;5074238;28;20590;-81
2023/10/13 09:10:11;;;;;;;1.48;0.73;;;26.20;90.80;;;;;;5074151;28;20221;-80
2023/10/13 09:12:39;;;;;;;7.43;1.10;;;26.30;89.80;;;;;;5074091;28;20786;-80
2023/10/13 09:15:18;;;;;;;3.45;0.85;;;26.20;90.00;;;;;;5074352;28;20198;-81
2023/10/13 09:17:51;;;;;;;3.03;1.13;;;26.30;88.80;;;;;;5074297;28;20282;-80
2023/10/13 09:20:32;;;;;;;2.75;1.38;;;26.30;88.90;;;;;;5074602;28;20182;-83
2023/10/13 09:23:07;;;;;;;1.17;1.17;;;26.30;87.90;;;;;;5075012;28;20232;-79
2023/10/13 09:25:37;;;;;;;3.53;1.08;;;26.40;88.10;;;;;;5074209;28;20265;-79
2023/10/13 09:28:14;;;;;;;0.93;0.88;;;26.80;86.40;;;;;;5074101;28;20202;-80
2023/10/13 09:30:44;;;;;;;2.45;1.10;;;27.00;85.20;;;;;;5074110;28;20206;-79
2023/10/13 09:33:15;;;;;;;1.17;1.08;;;27.20;85.70;;;;;;5073638;28;20219;-79
2023/10/13 09:35:48;;;;;;;1.75;1.10;;;27.50;85.10;;;;;;5074009;28;20188;-80
2023/10/13 09:38:15;;;;;;;1.65;0.90;;;27.50;82.70;;;;;;5074016;28;20188;-80
2023/10/13 09:40:49;;;;;;;3.25;1.10;;;27.60;82.70;;;;;;5073941;28;20261;-79
2023/10/13 09:43:17;;;;;;;3.70;1.20;;;27.80;82.10;;;;;;5073758;28;20231;-80
2023/10/13 09:46:01;;;;;;;1.30;1.17;;;27.80;81.70;;;;;;5074623;28;20250;-80
2023/10/13 09:48:32;;;;;;;4.75;0.80;;;28.10;81.60;;;;;;5073695;28;20234;-80
2023/10/13 09:51:01;;;;;;;0.98;0.77;;;28.20;78.00;;;;;;5073390;28;20236;-79
2023/10/13 09:53:29;;;;;;;4.80;0.80;;;28.20;78.80;;;;;;5073614;28;20218;-80
2023/10/13 09:56:11;;;;;;;1.73;0.98;;;28.00;77.50;;;;;;5073492;28;20664;-79
2023/10/13 09:58:47;;;;;;;1.48;1.38;;;27.70;75.80;;;;;;5073595;28;20305;-79
2023/10/13 10:01:21;;;;;;;2.15;1.25;;;27.40;76.90;;;;;;5073369;28;20222;-80
2023/10/13 10:03:54;;;;;;;3.60;1.00;;;27.50;77.10;;;;;;5073718;28;20229;-79
2023/10/13 10:06:28;;;;;;;0.95;0.80;;;27.10;75.40;;;;;;5073255;28;20190;-80
2023/10/13 10:09:10;;;;;;;1.30;1.20;;;27.10;77.40;;;;;;5073311;28;20207;-79
2023/10/13 10:12:01;;;;;;;2.45;0.80;;;27.10;76.10;;;;;;5073450;28;20201;-79
2023/10/13 10:14:41;;;;;;;1.90;1.48;;;27.30;75.70;;;;;;5073206;28;20236;-80
2023/10/13 10:17:09;;;;;;;15.65;2.60;;;27.80;75.10;;;;;;5073481;28;20228;-87
2023/10/13 10:19:47;;;;;;;1.35;1.10;;;28.10;75.60;;;;;;5073353;28;20209;-79
2023/10/13 10:22:17;;;;;;;1.45;1.27;;;28.40;74.00;;;;;;5073308;28;20186;-82
2023/10/13 10:24:45;;;;;;;1.77;1.05;;;28.60;74.70;;;;;;5073422;28;20244;-85
2023/10/13 10:27:14;;;;;;;1.40;0.95;;;28.50;71.90;;;;;;5073220;28;20198;-84
2023/10/13 10:29:53;;;;;;;1.65;0.70;;;29.10;73.50;;;;;;5072813;28;20246;-84
2023/10/13 10:32:20;;;;;;;5.10;1.27;;;29.90;70.50;;;;;;5072905;28;20557;-83
2023/10/13 10:34:48;;;;;;;1.48;1.38;;;30.90;67.20;;;;;;5073329;28;20217;-84
2023/10/13 10:37:15;;;;;;;1.45;1.23;;;31.70;65.20;;;;;;5073236;28;20210;-83
2023/10/13 10:39:46;;;;;;;3.90;1.52;;;31.70;62.20;;;;;;5073314;28;20293;-84
2023/10/13 10:42:23;;;;;;;3.80;0.90;;;31.40;62.60;;;;;;5073265;28;20280;-85
2023/10/13 10:44:55;;;;;;;3.58;1.08;;;30.90;63.30;;;;;;5073391;28;20608;-84
2023/10/13 10:47:30;;;;;;;1.98;0.85;;;30.20;63.50;;;;;;5073690;28;20581;-84
2023/10/13 10:49:57;;;;;;;2.72;1.50;;;29.20;63.40;;;;;;5072879;28;20285;-84
2023/10/13 10:52:27;;;;;;;2.05;1.00;;;28.50;66.70;;;;;;5072932;28;20208;-83
2023/10/13 10:55:01;;;;;;;1.00;0.75;;;27.80;67.20;;;;;;5073133;28;20213;-84
2023/10/13 10:57:37;;;;;;;1.98;1.13;;;27.30;69.60;;;;;;5072761;28;20690;-84
2023/10/13 11:00:11;;;;;;;0.80;0.80;;;27.00;69.60;;;;;;5072989;28;20206;-84
2023/10/13 11:02:38;;;;;;;1.55;1.13;;;26.80;70.40;;;;;;5073010;28;20233;-84
2023/10/13 11:05:07;;;;;;;3.50;1.48;;;26.70;71.20;;;;;;5072738;28;20264;-83
2023/10/13 11:07:34;;;;;;;1.42;1.30;;;26.60;71.60;;;;;;5073259;28;20297;-84
2023/10/13 11:10:11;;;;;;;1.15;0.95;;;26.60;71.90;;;;;;5072539;28;20257;-84
2023/10/13 11:12:39;;;;;;;2.35;1.35;;;26.50;73.00;;;;;;5073076;28;20275;-84
2023/10/13 11:15:14;;;;;;;1.33;1.23;;;26.40;71.20;;;;;;5074625;28;20610;-85
2023/10/13 11:17:48;;;;;;;1.10;0.95;;;26.30;72.50;;;;;;5077230;28;20236;-85
2023/10/13 11:20:25;;;;;;;1.38;1.27;;;26.10;73.80;;;;;;5076890;28;20182;-85
2023/10/13 11:22:52;;;;;;;1.50;1.40;;;26.00;73.50;;;;;;5076448;28;20294;-85
2023/10/13 11:25:29;;;;;;;2.78;1.30;;;25.90;73.40;;;;;;5076274;28;20693;-84
2023/10/13 11:27:58;;;;;;;1.13;0.98;;;25.80;71.40;;;;;;5076542;28;20205;-84
2023/10/13 11:30:40;;;;;;;2.88;0.98;;;25.80;71.70;;;;;;5076326;28;20317;-84
2023/10/13 11:33:09;;;;;;;1.33;1.10;;;25.80;73.50;;;;;;5076329;28;20721;-84
2023/10/13 11:38:26;;;;;;;1.40;1.27;;;25.90;72.30;;;;;;5076248;28;20185;-85
2023/10/13 11:41:08;;;;;;;3.60;1.00;;;25.90;71.60;;;;;;5076251;28;20364;-85
2023/10/13 11:43:52;;;;;;;1.63;1.00;;;25.90;74.00;;;;;;5075948;28;20780;-84
2023/10/13 11:46:55;;;;;;;1.20;1.10;;;25.90;72.10;;;;;;5076322;28;20200;-85
2023/10/13 11:49:20;;;;;;;3.90;1.23;;;25.90;72.10;;;;;;5075672;28;20314;-84
2023/10/13 11:51:48;;;;;;;5.97;1.17;;;25.80;72.70;;;;;;5075707;28;20237;-85
2023/10/13 11:54:15;;;;;;;1.05;0.95;;;25.80;72.20;;;;;;5075923;28;20234;-85
2023/10/13 11:56:42;;;;;;;1.27;1.17;;;25.70;72.10;;;;;;5075851;28;20670;-85
2023/10/13 11:59:17;;;;;;;1.45;1.10;;;25.70;73.20;;;;;;5075944;28;20579;-84
2023/10/13 12:04:40;;;;;;;2.22;1.00;;;25.60;71.80;;;;;;5052889;28;20214;-84
2023/10/13 12:07:17;;;;;;;0.95;0.95;;;25.50;71.00;;;;;;5075906;28;20182;-85
2023/10/13 12:10:02;;;;;;;1.30;1.10;;;25.40;71.60;;;;;;5075694;28;20205;-85
2023/10/13 12:12:31;;;;;;;2.05;1.00;;;25.30;72.90;;;;;;5075633;28;20257;-84
2023/10/13 12:15:09;;;;;;;3.83;1.42;;;25.20;74.00;;;;;;5075316;28;20373;-84
2023/10/13 12:17:39;;;;;;;2.88;1.20;;;25.20;72.80;;;;;;5075682;28;20182;-85
2023/10/13 12:20:10;;;;;;;4.15;1.20;;;25.20;72.10;;;;;;5076325;28;20226;-85
2023/10/13 12:22:39;;;;;;;1.33;1.00;;;25.20;72.90;;;;;;5075484;28;20257;-85
2023/10/13 12:25:18;;;;;;;1.27;0.90;;;25.10;72.40;;;;;;5075315;28;20241;-85
2023/10/13 12:27:48;;;;;;;1.75;1.23;;;25.10;72.70;;;;;;5074787;28;20186;-85
2023/10/13 12:30:22;;;;;;;2.15;0.90;;;25.10;73.30;;;;;;5075188;28;20321;-85
2023/10/13 12:32:58;;;;;;;3.15;1.15;;;25.00;73.90;;;;;;5075023;28;20222;-85
2023/10/13 12:35:30;;;;;;;2.70;1.20;;;25.00;75.60;;;;;;5075371;28;20592;-85
2023/10/13 12:38:04;;;;;;;1.63;0.80;;;24.90;75.30;;;;;;5074928;28;20286;-86
2023/10/13 12:49:03;;;;;;;3.25;1.45;;;24.80;74.70;;;;;;5074807;28;20189;-85
2023/10/13 12:51:50;;;;;;;1.70;1.20;;;24.80;73.10;;;;;;5074519;28;20234;-85
2023/10/13 12:54:23;;;;;;;4.47;0.90;;;24.70;73.50;;;;;;5074666;28;20591;-86
2023/10/13 12:56:56;;;;;;;1.17;1.00;;;24.70;75.50;;;;;;5075059;28;20197;-87
2023/10/13 12:59:26;;;;;;;3.30;1.20;;;24.70;72.50;;;;;;5074886;28;20575;-87
2023/10/13 13:01:55;;;;;;;1.02;0.70;;;24.70;74.30;;;;;;5074795;28;20218;-86
2023/10/13 13:04:22;;;;;;;5.50;1.38;;;24.70;74.80;;;;;;5074288;28;20253;-86
2023/10/13 13:06:49;;;;;;;3.22;1.23;;;24.70;73.10;;;;;;5074445;28;20679;-86
2023/10/13 13:09:25;;;;;;;2.05;1.20;;;24.90;74.30;;;;;;5074839;28;20202;-86
2023/10/13 13:11:52;;;;;;;1.02;0.93;;;24.60;73.50;;;;;;5074900;28;20229;-86
2023/10/13 13:14:19;;;;;;;1.35;1.00;;;24.60;73.50;;;;;;5074525;28;20248;-86
2023/10/13 13:16:48;;;;;;;1.15;1.00;;;24.60;74.60;;;;;;5074527;28;20210;-86
2023/10/13 13:19:24;;;;;;;1.50;1.15;;;24.50;72.90;;;;;;5074528;28;20205;-84
2023/10/13 13:21:50;;;;;;;2.97;1.33;;;24.60;73.60;;;;;;5074487;28;20197;-86
2023/10/13 13:24:20;;;;;;;1.25;1.00;;;24.60;71.80;;;;;;5073907;28;20734;-84
2023/10/13 13:26:48;;;;;;;1.67;0.98;;;24.60;71.70;;;;;;5074155;28;20551;-87
2023/10/13 13:29:15;;;;;;;4.35;1.00;;;24.70;70.80;;;;;;5074196;28;20213;-86
2023/10/13 13:31:43;;;;;;;0.95;0.82;;;24.70;70.80;;;;;;5074175;28;20214;-86
2023/10/13 13:34:12;;;;;;;1.23;0.95;;;24.70;71.10;;;;;;5074057;28;20251;-86
2023/10/13 13:36:44;;;;;;;1.20;1.10;;;24.70;71.70;;;;;;5073701;28;20697;-86
2023/10/13 13:39:11;;;;;;;1.67;1.10;;;24.60;70.50;;;;;;5073416;28;20195;-83
2023/10/13 13:41:38;;;;;;;1.65;0.90;;;24.70;71.10;;;;;;5073760;28;20659;-84
2023/10/13 13:44:14;;;;;;;1.33;0.90;;;24.50;71.20;;;;;;5073997;28;20287;-84
2023/10/13 13:46:42;;;;;;;1.25;0.98;;;24.60;69.00;;;;;;5074112;28;20702;-83
2023/10/13 13:49:17;;;;;;;0.70;0.70;;;24.60;69.70;;;;;;5073753;28;20233;-84
2023/10/13 13:51:51;;;;;;;1.60;1.23;;;24.60;70.20;;;;;;5073305;28;20233;-85
2023/10/13 13:54:19;;;;;;;0.80;0.80;;;24.60;68.90;;;;;;5073741;28;20222;-85
2023/10/13 13:56:46;;;;;;;0.88;0.88;;;24.60;69.80;;;;;;5073712;28;20206;-85
2023/10/13 13:59:15;;;;;;;2.53;1.30;;;24.60;69.60;;;;;;5073600;28;20197;-84
2023/10/13 14:01:44;;;;;;;0.70;0.70;;;24.60;68.90;;;;;;5073681;28;20198;-84
2023/10/13 14:04:11;;;;;;;1.70;0.98;;;24.40;66.70;;;;;;5073894;28;20225;-83
2023/10/13 14:06:38;;;;;;;1.25;0.90;;;24.60;68.10;;;;;;5073649;28;20183;-84
2023/10/13 14:09:15;;;;;;;2.25;1.08;;;24.60;66.70;;;;;;5073523;28;20202;-85
2023/10/13 14:14:33;;;;;;;0.95;0.80;;;24.50;66.60;;;;;;5073589;28;20217;-86
2023/10/13 14:17:06;;;;;;;5.68;1.23;;;24.50;66.10;;;;;;5073745;28;20208;-85
2023/10/13 14:19:33;;;;;;;1.20;0.88;;;24.50;66.70;;;;;;5073439;28;20282;-85
2023/10/13 14:22:06;;;;;;;1.15;0.90;;;24.50;67.70;;;;;;5073486;28;20198;-86
2023/10/13 14:24:43;;;;;;;0.93;0.82;;;24.40;68.10;;;;;;5073390;28;20631;-86
2023/10/13 14:27:12;;;;;;;1.55;0.95;;;24.40;67.30;;;;;;5073557;28;20186;-86
2023/10/13 14:29:42;;;;;;;1.35;0.90;;;24.40;67.50;;;;;;5073106;28;20213;-87
2023/10/13 14:32:12;;;;;;;1.20;0.80;;;24.40;67.40;;;;;;5073471;28;20202;-86
2023/10/13 14:34:40;;;;;;;0.60;0.60;;;24.30;67.70;;;;;;5074247;28;20251;-84
2023/10/13 14:37:06;;;;;;;7.32;1.05;;;24.30;67.10;;;;;;5073912;28;20202;-86
2023/10/13 14:39:36;;;;;;;1.00;0.73;;;24.30;65.30;;;;;;5072961;28;20670;-85
2023/10/13 14:42:05;;;;;;;1.13;0.82;;;24.20;65.90;;;;;;5073065;28;20247;-85
2023/10/13 14:44:32;;;;;;;0.98;0.90;;;24.20;66.60;;;;;;5073224;28;20313;-85
2023/10/13 14:46:59;;;;;;;1.42;0.73;;;24.10;66.70;;;;;;5073473;28;20197;-84
2023/10/13 14:49:26;;;;;;;1.20;1.20;;;24.10;65.20;;;;;;5073809;28;20198;-85
2023/10/13 14:51:54;;;;;;;0.80;0.80;;;24.00;65.70;;;;;;5077134;28;20222;-85
2023/10/13 14:54:32;;;;;;;4.55;0.95;;;24.00;66.00;;;;;;5077036;28;20225;-85
2023/10/13 14:57:00;;;;;;;2.35;1.13;;;24.00;67.70;;;;;;5076984;28;20288;-85
2023/10/13 14:59:32;;;;;;;1.08;0.70;;;23.90;69.40;;;;;;5076817;28;20574;-85
2023/10/13 15:02:00;;;;;;;1.00;0.88;;;23.80;67.50;;;;;;5077287;28;20185;-85
2023/10/13 15:04:28;;;;;;;3.58;1.40;;;23.80;67.90;;;;;;5077392;28;20222;-88
2023/10/13 15:06:55;;;;;;;1.92;1.63;;;23.80;68.30;;;;;;5077619;28;20284;-89
2023/10/13 15:09:24;;;;;;;2.55;0.70;;;23.60;70.10;;;;;;5077906;28;20588;-88